sensor_id;sensor_type;location;lat;lon;timestamp;P1;durP1;ratioP1;P2;durP2;ratioP2
76157;SDS011;64907;51.574;6.502;2023-09-19T00:02:16;13.32;;;3.03;;
76157;SDS011;64907;51.574;6.502;2023-09-19T00:04:41;6.85;;;2.40;;
76157;SDS011;64907;51.574;6.502;2023-09-19T00:07:08;13.70;;;2.60;;
76157;SDS011;64907;51.574;6.502;2023-09-19T00:09:34;10.70;;;2.95;;
76157;SDS011;64907;51.574;6.502;2023-09-19T00:12:03;7.15;;;2.53;;
76157;SDS011;64907;51.574;6.502;2023-09-19T00:14:28;10.93;;;3.72;;
76157;SDS011;64907;51.574;6.502;2023-09-19T00:16:53;12.10;;;3.10;;
76157;SDS011;64907;51.574;6.502;2023-09-19T00:19:20;13.20;;;3.00;;
76157;SDS011;64907;51.574;6.502;2023-09-19T00:21:46;10.80;;;3.33;;
76157;SDS011;64907;51.574;6.502;2023-09-19T00:24:12;11.07;;;3.17;;
76157;SDS011;64907;51.574;6.502;2023-09-19T00:26:37;5.80;;;2.72;;
76157;SDS011;64907;51.574;6.502;2023-09-19T00:29:03;9.77;;;2.90;;
76157;SDS011;64907;51.574;6.502;2023-09-19T00:31:31;9.15;;;3.28;;
76157;SDS011;64907;51.574;6.502;2023-09-19T00:33:57;12.30;;;3.92;;
76157;SDS011;64907;51.574;6.502;2023-09-19T00:36:25;11.85;;;3.33;;
76157;SDS011;64907;51.574;6.502;2023-09-19T00:38:51;10.65;;;2.83;;
76157;SDS011;64907;51.574;6.502;2023-09-19T00:41:16;12.73;;;3.05;;
76157;SDS011;64907;51.574;6.502;2023-09-19T00:43:42;15.70;;;3.35;;
76157;SDS011;64907;51.574;6.502;2023-09-19T00:46:07;14.70;;;2.97;;
76157;SDS011;64907;51.574;6.502;2023-09-19T00:48:32;12.95;;;3.08;;
76157;SDS011;64907;51.574;6.502;2023-09-19T00:51:03;13.35;;;3.50;;
76157;SDS011;64907;51.574;6.502;2023-09-19T00:53:29;8.40;;;2.75;;
76157;SDS011;64907;51.574;6.502;2023-09-19T00:55:55;11.75;;;2.50;;
76157;SDS011;64907;51.574;6.502;2023-09-19T00:58:21;11.02;;;2.90;;
76157;SDS011;64907;51.574;6.502;2023-09-19T01:00:47;13.05;;;2.95;;
76157;SDS011;64907;51.574;6.502;2023-09-19T01:03:13;10.82;;;3.78;;
76157;SDS011;64907;51.574;6.502;2023-09-19T01:05:38;12.32;;;2.92;;
76157;SDS011;64907;51.574;6.502;2023-09-19T01:08:04;13.80;;;3.10;;
76157;SDS011;64907;51.574;6.502;2023-09-19T01:10:29;10.18;;;2.88;;
76157;SDS011;64907;51.574;6.502;2023-09-19T01:17:53;8.93;;;3.28;;
76157;SDS011;64907;51.574;6.502;2023-09-19T01:20:21;11.00;;;3.20;;
76157;SDS011;64907;51.574;6.502;2023-09-19T01:28:20;11.10;;;3.17;;
76157;SDS011;64907;51.574;6.502;2023-09-19T01:30:49;7.97;;;3.13;;
76157;SDS011;64907;51.574;6.502;2023-09-19T01:33:20;17.45;;;4.03;;
76157;SDS011;64907;51.574;6.502;2023-09-19T01:35:45;13.98;;;3.22;;
76157;SDS011;64907;51.574;6.502;2023-09-19T01:38:10;16.70;;;3.25;;
76157;SDS011;64907;51.574;6.502;2023-09-19T01:40:41;16.50;;;3.25;;
76157;SDS011;64907;51.574;6.502;2023-09-19T01:50:59;10.02;;;3.20;;
76157;SDS011;64907;51.574;6.502;2023-09-19T01:53:26;13.23;;;3.42;;
76157;SDS011;64907;51.574;6.502;2023-09-19T01:55:53;13.00;;;2.78;;
76157;SDS011;64907;51.574;6.502;2023-09-19T01:58:35;13.50;;;2.90;;
76157;SDS011;64907;51.574;6.502;2023-09-19T02:01:03;13.10;;;3.22;;
76157;SDS011;64907;51.574;6.502;2023-09-19T02:03:30;8.32;;;2.85;;
76157;SDS011;64907;51.574;6.502;2023-09-19T02:05:56;9.45;;;3.00;;
76157;SDS011;64907;51.574;6.502;2023-09-19T02:08:21;10.48;;;3.28;;
76157;SDS011;64907;51.574;6.502;2023-09-19T02:10:49;9.68;;;3.28;;
76157;SDS011;64907;51.574;6.502;2023-09-19T02:13:21;16.48;;;3.15;;
76157;SDS011;64907;51.574;6.502;2023-09-19T02:15:47;9.50;;;2.95;;
76157;SDS011;64907;51.574;6.502;2023-09-19T02:18:12;5.63;;;3.27;;
76157;SDS011;64907;51.574;6.502;2023-09-19T02:20:38;7.85;;;2.83;;
76157;SDS011;64907;51.574;6.502;2023-09-19T02:23:04;16.80;;;3.30;;
76157;SDS011;64907;51.574;6.502;2023-09-19T02:25:29;18.77;;;3.22;;
76157;SDS011;64907;51.574;6.502;2023-09-19T02:27:56;8.48;;;3.08;;
76157;SDS011;64907;51.574;6.502;2023-09-19T02:30:23;7.63;;;2.45;;
76157;SDS011;64907;51.574;6.502;2023-09-19T02:32:50;9.45;;;3.05;;
76157;SDS011;64907;51.574;6.502;2023-09-19T02:35:15;10.68;;;3.03;;
76157;SDS011;64907;51.574;6.502;2023-09-19T02:37:41;9.68;;;3.20;;
76157;SDS011;64907;51.574;6.502;2023-09-19T02:40:06;15.23;;;3.58;;
76157;SDS011;64907;51.574;6.502;2023-09-19T02:42:43;9.55;;;2.88;;
76157;SDS011;64907;51.574;6.502;2023-09-19T02:45:13;16.23;;;3.33;;
76157;SDS011;64907;51.574;6.502;2023-09-19T02:47:40;11.73;;;2.70;;
76157;SDS011;64907;51.574;6.502;2023-09-19T02:50:05;10.98;;;2.90;;
76157;SDS011;64907;51.574;6.502;2023-09-19T02:52:30;7.97;;;3.30;;
76157;SDS011;64907;51.574;6.502;2023-09-19T02:54:56;12.73;;;3.20;;
76157;SDS011;64907;51.574;6.502;2023-09-19T02:57:21;7.32;;;2.97;;
76157;SDS011;64907;51.574;6.502;2023-09-19T02:59:46;11.05;;;3.45;;
76157;SDS011;64907;51.574;6.502;2023-09-19T03:02:11;10.75;;;3.13;;
76157;SDS011;64907;51.574;6.502;2023-09-19T03:04:37;8.35;;;2.22;;
76157;SDS011;64907;51.574;6.502;2023-09-19T03:07:02;11.10;;;3.22;;
76157;SDS011;64907;51.574;6.502;2023-09-19T03:09:27;7.97;;;2.55;;
76157;SDS011;64907;51.574;6.502;2023-09-19T03:11:53;7.93;;;2.90;;
76157;SDS011;64907;51.574;6.502;2023-09-19T03:14:19;8.55;;;2.33;;
76157;SDS011;64907;51.574;6.502;2023-09-19T03:16:45;6.75;;;2.90;;
76157;SDS011;64907;51.574;6.502;2023-09-19T03:19:10;10.55;;;2.55;;
76157;SDS011;64907;51.574;6.502;2023-09-19T03:21:36;14.60;;;2.97;;
76157;SDS011;64907;51.574;6.502;2023-09-19T03:24:01;7.47;;;2.93;;
76157;SDS011;64907;51.574;6.502;2023-09-19T03:26:27;12.85;;;3.10;;
76157;SDS011;64907;51.574;6.502;2023-09-19T03:28:53;16.45;;;3.80;;
76157;SDS011;64907;51.574;6.502;2023-09-19T03:31:18;7.00;;;2.65;;
76157;SDS011;64907;51.574;6.502;2023-09-19T03:33:43;10.05;;;3.10;;
76157;SDS011;64907;51.574;6.502;2023-09-19T03:36:08;12.93;;;3.42;;
76157;SDS011;64907;51.574;6.502;2023-09-19T03:38:34;14.25;;;2.85;;
76157;SDS011;64907;51.574;6.502;2023-09-19T03:41:00;8.15;;;2.90;;
76157;SDS011;64907;51.574;6.502;2023-09-19T03:43:25;7.88;;;2.97;;
76157;SDS011;64907;51.574;6.502;2023-09-19T03:45:51;7.90;;;2.88;;
76157;SDS011;64907;51.574;6.502;2023-09-19T03:48:20;14.85;;;2.97;;
76157;SDS011;64907;51.574;6.502;2023-09-19T03:50:46;9.43;;;2.97;;
76157;SDS011;64907;51.574;6.502;2023-09-19T03:53:11;9.57;;;2.78;;
76157;SDS011;64907;51.574;6.502;2023-09-19T03:55:37;5.75;;;2.63;;
76157;SDS011;64907;51.574;6.502;2023-09-19T03:58:03;9.73;;;2.80;;
76157;SDS011;64907;51.574;6.502;2023-09-19T04:00:29;13.85;;;3.00;;
76157;SDS011;64907;51.574;6.502;2023-09-19T04:02:54;5.93;;;2.35;;
76157;SDS011;64907;51.574;6.502;2023-09-19T04:05:21;8.80;;;2.55;;
76157;SDS011;64907;51.574;6.502;2023-09-19T04:07:46;8.77;;;2.47;;
76157;SDS011;64907;51.574;6.502;2023-09-19T04:10:11;9.13;;;2.58;;
76157;SDS011;64907;51.574;6.502;2023-09-19T04:12:37;9.85;;;2.78;;
76157;SDS011;64907;51.574;6.502;2023-09-19T04:15:03;8.73;;;2.65;;
76157;SDS011;64907;51.574;6.502;2023-09-19T04:17:29;9.75;;;2.67;;
76157;SDS011;64907;51.574;6.502;2023-09-19T04:19:54;6.47;;;2.38;;
76157;SDS011;64907;51.574;6.502;2023-09-19T04:22:20;8.43;;;2.93;;
76157;SDS011;64907;51.574;6.502;2023-09-19T04:24:45;11.95;;;3.03;;
76157;SDS011;64907;51.574;6.502;2023-09-19T04:27:10;7.38;;;2.15;;
76157;SDS011;64907;51.574;6.502;2023-09-19T04:29:37;12.52;;;3.03;;
76157;SDS011;64907;51.574;6.502;2023-09-19T04:32:03;13.27;;;3.00;;
76157;SDS011;64907;51.574;6.502;2023-09-19T04:34:30;13.43;;;3.40;;
76157;SDS011;64907;51.574;6.502;2023-09-19T04:36:56;8.43;;;2.57;;
76157;SDS011;64907;51.574;6.502;2023-09-19T04:39:23;15.05;;;3.33;;
76157;SDS011;64907;51.574;6.502;2023-09-19T04:41:50;12.13;;;2.95;;
76157;SDS011;64907;51.574;6.502;2023-09-19T04:44:16;9.73;;;2.30;;
76157;SDS011;64907;51.574;6.502;2023-09-19T04:46:41;9.18;;;2.65;;
76157;SDS011;64907;51.574;6.502;2023-09-19T04:49:06;5.95;;;2.47;;
76157;SDS011;64907;51.574;6.502;2023-09-19T04:51:32;9.20;;;3.28;;
76157;SDS011;64907;51.574;6.502;2023-09-19T04:53:59;11.85;;;2.67;;
76157;SDS011;64907;51.574;6.502;2023-09-19T04:56:24;12.80;;;2.65;;
76157;SDS011;64907;51.574;6.502;2023-09-19T04:58:51;8.13;;;2.60;;
76157;SDS011;64907;51.574;6.502;2023-09-19T05:01:16;12.57;;;2.65;;
76157;SDS011;64907;51.574;6.502;2023-09-19T05:03:41;8.70;;;2.40;;
76157;SDS011;64907;51.574;6.502;2023-09-19T05:06:07;6.13;;;2.47;;
76157;SDS011;64907;51.574;6.502;2023-09-19T05:08:32;9.25;;;2.95;;
76157;SDS011;64907;51.574;6.502;2023-09-19T05:10:57;9.32;;;2.70;;
76157;SDS011;64907;51.574;6.502;2023-09-19T05:13:22;13.97;;;3.20;;
76157;SDS011;64907;51.574;6.502;2023-09-19T05:15:49;9.75;;;3.40;;
76157;SDS011;64907;51.574;6.502;2023-09-19T05:18:15;6.63;;;2.17;;
76157;SDS011;64907;51.574;6.502;2023-09-19T05:20:40;8.15;;;2.75;;
76157;SDS011;64907;51.574;6.502;2023-09-19T05:23:06;7.32;;;2.72;;
76157;SDS011;64907;51.574;6.502;2023-09-19T05:25:36;14.15;;;3.05;;
76157;SDS011;64907;51.574;6.502;2023-09-19T05:28:03;8.40;;;3.13;;
76157;SDS011;64907;51.574;6.502;2023-09-19T05:30:30;8.82;;;3.03;;
76157;SDS011;64907;51.574;6.502;2023-09-19T05:32:56;7.38;;;2.90;;
76157;SDS011;64907;51.574;6.502;2023-09-19T05:35:22;12.43;;;3.70;;
76157;SDS011;64907;51.574;6.502;2023-09-19T05:37:47;10.35;;;3.05;;
76157;SDS011;64907;51.574;6.502;2023-09-19T05:40:16;11.40;;;3.80;;
76157;SDS011;64907;51.574;6.502;2023-09-19T05:42:42;13.10;;;3.08;;
76157;SDS011;64907;51.574;6.502;2023-09-19T05:45:09;14.15;;;3.38;;
76157;SDS011;64907;51.574;6.502;2023-09-19T05:47:37;11.48;;;2.80;;
76157;SDS011;64907;51.574;6.502;2023-09-19T05:50:02;8.95;;;2.97;;
76157;SDS011;64907;51.574;6.502;2023-09-19T05:52:27;9.48;;;2.58;;
76157;SDS011;64907;51.574;6.502;2023-09-19T05:54:53;12.80;;;2.93;;
76157;SDS011;64907;51.574;6.502;2023-09-19T05:57:18;11.93;;;3.37;;
76157;SDS011;64907;51.574;6.502;2023-09-19T05:59:44;12.35;;;2.92;;
76157;SDS011;64907;51.574;6.502;2023-09-19T06:02:09;10.27;;;2.80;;
76157;SDS011;64907;51.574;6.502;2023-09-19T06:04:36;9.90;;;2.70;;
76157;SDS011;64907;51.574;6.502;2023-09-19T06:07:03;9.07;;;2.92;;
76157;SDS011;64907;51.574;6.502;2023-09-19T06:09:29;9.68;;;3.42;;
76157;SDS011;64907;51.574;6.502;2023-09-19T06:11:58;13.07;;;3.33;;
76157;SDS011;64907;51.574;6.502;2023-09-19T06:14:25;8.95;;;2.67;;
76157;SDS011;64907;51.574;6.502;2023-09-19T06:16:50;8.95;;;3.25;;
76157;SDS011;64907;51.574;6.502;2023-09-19T06:19:15;10.77;;;2.97;;
76157;SDS011;64907;51.574;6.502;2023-09-19T06:21:41;7.45;;;2.60;;
76157;SDS011;64907;51.574;6.502;2023-09-19T06:24:06;10.00;;;2.97;;
76157;SDS011;64907;51.574;6.502;2023-09-19T06:26:31;14.07;;;3.13;;
76157;SDS011;64907;51.574;6.502;2023-09-19T06:28:57;7.25;;;2.55;;
76157;SDS011;64907;51.574;6.502;2023-09-19T06:31:22;8.57;;;3.13;;
76157;SDS011;64907;51.574;6.502;2023-09-19T06:33:51;9.82;;;3.35;;
76157;SDS011;64907;51.574;6.502;2023-09-19T06:36:16;8.68;;;3.00;;
76157;SDS011;64907;51.574;6.502;2023-09-19T06:38:42;7.90;;;2.90;;
76157;SDS011;64907;51.574;6.502;2023-09-19T06:41:07;14.10;;;2.43;;
76157;SDS011;64907;51.574;6.502;2023-09-19T06:43:33;10.35;;;2.63;;
76157;SDS011;64907;51.574;6.502;2023-09-19T06:45:59;12.68;;;3.17;;
76157;SDS011;64907;51.574;6.502;2023-09-19T06:48:24;9.05;;;2.85;;
76157;SDS011;64907;51.574;6.502;2023-09-19T06:50:50;14.50;;;3.35;;
76157;SDS011;64907;51.574;6.502;2023-09-19T06:53:15;10.07;;;3.17;;
76157;SDS011;64907;51.574;6.502;2023-09-19T06:55:41;13.07;;;2.85;;
76157;SDS011;64907;51.574;6.502;2023-09-19T06:58:09;8.63;;;2.78;;
76157;SDS011;64907;51.574;6.502;2023-09-19T07:00:35;12.15;;;2.92;;
76157;SDS011;64907;51.574;6.502;2023-09-19T07:03:02;9.93;;;2.80;;
76157;SDS011;64907;51.574;6.502;2023-09-19T07:05:29;9.50;;;2.92;;
76157;SDS011;64907;51.574;6.502;2023-09-19T07:07:55;9.07;;;3.00;;
76157;SDS011;64907;51.574;6.502;2023-09-19T07:10:21;9.50;;;2.80;;
76157;SDS011;64907;51.574;6.502;2023-09-19T07:12:53;10.95;;;3.45;;
76157;SDS011;64907;51.574;6.502;2023-09-19T07:15:18;10.48;;;3.15;;
76157;SDS011;64907;51.574;6.502;2023-09-19T07:17:43;11.82;;;2.78;;
76157;SDS011;64907;51.574;6.502;2023-09-19T07:20:10;11.95;;;2.75;;
76157;SDS011;64907;51.574;6.502;2023-09-19T07:22:38;9.90;;;3.17;;
76157;SDS011;64907;51.574;6.502;2023-09-19T07:25:04;10.00;;;3.80;;
76157;SDS011;64907;51.574;6.502;2023-09-19T07:27:29;12.88;;;3.72;;
76157;SDS011;64907;51.574;6.502;2023-09-19T07:29:54;11.00;;;2.60;;
76157;SDS011;64907;51.574;6.502;2023-09-19T07:32:20;14.97;;;2.83;;
76157;SDS011;64907;51.574;6.502;2023-09-19T07:34:45;11.37;;;2.90;;
76157;SDS011;64907;51.574;6.502;2023-09-19T07:37:10;6.78;;;2.30;;
76157;SDS011;64907;51.574;6.502;2023-09-19T07:39:36;10.15;;;2.78;;
76157;SDS011;64907;51.574;6.502;2023-09-19T07:42:01;10.90;;;3.53;;
76157;SDS011;64907;51.574;6.502;2023-09-19T07:44:26;12.30;;;2.60;;
76157;SDS011;64907;51.574;6.502;2023-09-19T07:46:51;10.85;;;3.60;;
76157;SDS011;64907;51.574;6.502;2023-09-19T07:49:17;8.13;;;2.55;;
76157;SDS011;64907;51.574;6.502;2023-09-19T07:51:42;11.27;;;3.17;;
76157;SDS011;64907;51.574;6.502;2023-09-19T07:54:11;13.82;;;2.95;;
76157;SDS011;64907;51.574;6.502;2023-09-19T07:56:36;12.88;;;2.88;;
76157;SDS011;64907;51.574;6.502;2023-09-19T07:59:02;15.48;;;2.92;;
76157;SDS011;64907;51.574;6.502;2023-09-19T08:01:27;9.10;;;2.90;;
76157;SDS011;64907;51.574;6.502;2023-09-19T08:03:52;11.48;;;3.08;;
76157;SDS011;64907;51.574;6.502;2023-09-19T08:06:18;15.85;;;3.47;;
76157;SDS011;64907;51.574;6.502;2023-09-19T08:08:45;8.55;;;2.28;;
76157;SDS011;64907;51.574;6.502;2023-09-19T08:11:10;9.88;;;3.80;;
76157;SDS011;64907;51.574;6.502;2023-09-19T08:13:37;9.98;;;3.42;;
76157;SDS011;64907;51.574;6.502;2023-09-19T08:16:06;13.85;;;3.03;;
76157;SDS011;64907;51.574;6.502;2023-09-19T08:18:31;9.43;;;2.70;;
76157;SDS011;64907;51.574;6.502;2023-09-19T08:20:56;13.67;;;3.43;;
76157;SDS011;64907;51.574;6.502;2023-09-19T08:23:23;7.85;;;2.97;;
76157;SDS011;64907;51.574;6.502;2023-09-19T08:25:48;11.95;;;3.83;;
76157;SDS011;64907;51.574;6.502;2023-09-19T08:28:14;9.07;;;3.10;;
76157;SDS011;64907;51.574;6.502;2023-09-19T08:30:44;9.35;;;3.38;;
76157;SDS011;64907;51.574;6.502;2023-09-19T08:33:09;8.93;;;3.10;;
76157;SDS011;64907;51.574;6.502;2023-09-19T08:35:35;9.05;;;3.05;;
76157;SDS011;64907;51.574;6.502;2023-09-19T08:38:01;10.43;;;2.97;;
76157;SDS011;64907;51.574;6.502;2023-09-19T08:40:32;9.80;;;2.97;;
76157;SDS011;64907;51.574;6.502;2023-09-19T08:43:01;11.77;;;2.88;;
76157;SDS011;64907;51.574;6.502;2023-09-19T08:45:26;13.87;;;3.23;;
76157;SDS011;64907;51.574;6.502;2023-09-19T08:48:12;9.85;;;2.92;;
76157;SDS011;64907;51.574;6.502;2023-09-19T08:50:42;9.80;;;2.50;;
76157;SDS011;64907;51.574;6.502;2023-09-19T08:53:10;11.32;;;2.85;;
76157;SDS011;64907;51.574;6.502;2023-09-19T08:55:38;9.02;;;3.17;;
76157;SDS011;64907;51.574;6.502;2023-09-19T08:58:06;14.18;;;3.38;;
76157;SDS011;64907;51.574;6.502;2023-09-19T09:00:35;10.38;;;2.90;;
76157;SDS011;64907;51.574;6.502;2023-09-19T09:03:03;10.43;;;3.20;;
76157;SDS011;64907;51.574;6.502;2023-09-19T09:05:31;7.82;;;2.50;;
76157;SDS011;64907;51.574;6.502;2023-09-19T09:07:57;10.07;;;3.05;;
76157;SDS011;64907;51.574;6.502;2023-09-19T09:10:24;13.00;;;3.42;;
76157;SDS011;64907;51.574;6.502;2023-09-19T09:12:53;11.90;;;3.35;;
76157;SDS011;64907;51.574;6.502;2023-09-19T09:15:23;9.68;;;2.83;;
76157;SDS011;64907;51.574;6.502;2023-09-19T09:17:48;12.55;;;3.00;;
76157;SDS011;64907;51.574;6.502;2023-09-19T09:20:15;13.73;;;3.00;;
76157;SDS011;64907;51.574;6.502;2023-09-19T09:22:50;11.50;;;2.95;;
76157;SDS011;64907;51.574;6.502;2023-09-19T09:25:15;9.95;;;2.83;;
76157;SDS011;64907;51.574;6.502;2023-09-19T09:27:48;11.25;;;2.75;;
76157;SDS011;64907;51.574;6.502;2023-09-19T09:30:36;11.27;;;2.85;;
76157;SDS011;64907;51.574;6.502;2023-09-19T09:33:09;11.00;;;2.60;;
76157;SDS011;64907;51.574;6.502;2023-09-19T09:35:35;21.45;;;2.92;;
76157;SDS011;64907;51.574;6.502;2023-09-19T09:38:01;11.05;;;3.33;;
76157;SDS011;64907;51.574;6.502;2023-09-19T09:40:45;8.80;;;3.00;;
76157;SDS011;64907;51.574;6.502;2023-09-19T09:43:25;8.63;;;2.50;;
76157;SDS011;64907;51.574;6.502;2023-09-19T09:45:57;9.05;;;2.90;;
76157;SDS011;64907;51.574;6.502;2023-09-19T09:48:35;9.65;;;3.20;;
76157;SDS011;64907;51.574;6.502;2023-09-19T09:51:03;11.45;;;3.55;;
76157;SDS011;64907;51.574;6.502;2023-09-19T09:53:32;8.43;;;2.33;;
76157;SDS011;64907;51.574;6.502;2023-09-19T09:56:04;8.63;;;2.80;;
76157;SDS011;64907;51.574;6.502;2023-09-19T09:58:50;10.25;;;3.00;;
76157;SDS011;64907;51.574;6.502;2023-09-19T10:01:17;9.07;;;3.22;;
76157;SDS011;64907;51.574;6.502;2023-09-19T10:03:43;10.80;;;3.38;;
76157;SDS011;64907;51.574;6.502;2023-09-19T10:06:16;8.80;;;3.15;;
76157;SDS011;64907;51.574;6.502;2023-09-19T10:09:24;11.07;;;3.70;;
76157;SDS011;64907;51.574;6.502;2023-09-19T10:11:46;11.82;;;3.33;;
76157;SDS011;64907;51.574;6.502;2023-09-19T10:14:12;8.32;;;2.40;;
76157;SDS011;64907;51.574;6.502;2023-09-19T10:16:45;9.05;;;2.65;;
76157;SDS011;64907;51.574;6.502;2023-09-19T10:19:11;6.97;;;2.38;;
76157;SDS011;64907;51.574;6.502;2023-09-19T10:21:40;8.10;;;2.95;;
76157;SDS011;64907;51.574;6.502;2023-09-19T10:24:08;8.20;;;3.25;;
76157;SDS011;64907;51.574;6.502;2023-09-19T10:26:34;15.35;;;3.45;;
76157;SDS011;64907;51.574;6.502;2023-09-19T10:29:01;7.05;;;3.33;;
76157;SDS011;64907;51.574;6.502;2023-09-19T10:31:27;8.10;;;3.33;;
76157;SDS011;64907;51.574;6.502;2023-09-19T10:33:53;12.13;;;2.72;;
76157;SDS011;64907;51.574;6.502;2023-09-19T10:36:20;5.95;;;2.60;;
76157;SDS011;64907;51.574;6.502;2023-09-19T10:38:47;5.00;;;2.42;;
76157;SDS011;64907;51.574;6.502;2023-09-19T10:41:13;5.82;;;3.13;;
76157;SDS011;64907;51.574;6.502;2023-09-19T10:43:39;6.35;;;3.13;;
76157;SDS011;64907;51.574;6.502;2023-09-19T10:46:07;6.20;;;2.40;;
76157;SDS011;64907;51.574;6.502;2023-09-19T10:48:35;9.45;;;2.60;;
76157;SDS011;64907;51.574;6.502;2023-09-19T10:53:32;6.07;;;2.33;;
76157;SDS011;64907;51.574;6.502;2023-09-19T10:56:05;9.27;;;2.53;;
76157;SDS011;64907;51.574;6.502;2023-09-19T10:58:35;7.95;;;2.58;;
76157;SDS011;64907;51.574;6.502;2023-09-19T11:01:04;6.30;;;2.70;;
76157;SDS011;64907;51.574;6.502;2023-09-19T11:03:37;8.40;;;2.67;;
76157;SDS011;64907;51.574;6.502;2023-09-19T11:06:17;7.57;;;2.45;;
76157;SDS011;64907;51.574;6.502;2023-09-19T11:08:57;6.57;;;2.92;;
76157;SDS011;64907;51.574;6.502;2023-09-19T11:14:13;5.22;;;2.75;;
76157;SDS011;64907;51.574;6.502;2023-09-19T11:16:39;10.07;;;2.85;;
76157;SDS011;64907;51.574;6.502;2023-09-19T11:19:04;6.43;;;2.40;;
76157;SDS011;64907;51.574;6.502;2023-09-19T11:26:44;8.80;;;2.45;;
76157;SDS011;64907;51.574;6.502;2023-09-19T11:31:50;7.13;;;2.50;;
76157;SDS011;64907;51.574;6.502;2023-09-19T11:37:00;5.47;;;2.05;;
76157;SDS011;64907;51.574;6.502;2023-09-19T11:39:26;6.30;;;2.58;;
76157;SDS011;64907;51.574;6.502;2023-09-19T11:41:54;8.45;;;2.50;;
76157;SDS011;64907;51.574;6.502;2023-09-19T11:44:31;8.52;;;2.38;;
76157;SDS011;64907;51.574;6.502;2023-09-19T11:46:58;6.80;;;2.30;;
76157;SDS011;64907;51.574;6.502;2023-09-19T11:49:31;5.45;;;2.35;;
76157;SDS011;64907;51.574;6.502;2023-09-19T11:51:57;8.75;;;2.67;;
76157;SDS011;64907;51.574;6.502;2023-09-19T11:54:24;6.68;;;2.58;;
76157;SDS011;64907;51.574;6.502;2023-09-19T11:56:53;8.55;;;2.40;;
76157;SDS011;64907;51.574;6.502;2023-09-19T11:59:31;6.10;;;3.15;;
76157;SDS011;64907;51.574;6.502;2023-09-19T12:01:58;6.93;;;2.40;;
76157;SDS011;64907;51.574;6.502;2023-09-19T12:04:35;6.50;;;2.40;;
76157;SDS011;64907;51.574;6.502;2023-09-19T12:07:12;6.38;;;2.72;;
76157;SDS011;64907;51.574;6.502;2023-09-19T12:09:41;6.43;;;2.83;;
76157;SDS011;64907;51.574;6.502;2023-09-19T12:12:09;8.48;;;2.20;;
76157;SDS011;64907;51.574;6.502;2023-09-19T12:14:34;4.93;;;2.25;;
76157;SDS011;64907;51.574;6.502;2023-09-19T12:17:00;6.10;;;2.25;;
76157;SDS011;64907;51.574;6.502;2023-09-19T12:19:26;7.97;;;2.60;;
76157;SDS011;64907;51.574;6.502;2023-09-19T12:22:02;8.57;;;2.60;;
76157;SDS011;64907;51.574;6.502;2023-09-19T12:24:31;12.20;;;3.08;;
76157;SDS011;64907;51.574;6.502;2023-09-19T12:27:00;5.63;;;2.38;;
76157;SDS011;64907;51.574;6.502;2023-09-19T12:29:26;7.88;;;2.55;;
76157;SDS011;64907;51.574;6.502;2023-09-19T12:31:56;5.97;;;2.00;;
76157;SDS011;64907;51.574;6.502;2023-09-19T12:34:31;7.20;;;2.45;;
76157;SDS011;64907;51.574;6.502;2023-09-19T12:37:03;2.60;;;1.92;;
76157;SDS011;64907;51.574;6.502;2023-09-19T12:39:36;9.55;;;2.35;;
76157;SDS011;64907;51.574;6.502;2023-09-19T12:42:01;5.40;;;2.30;;
76157;SDS011;64907;51.574;6.502;2023-09-19T12:44:29;4.65;;;1.85;;
76157;SDS011;64907;51.574;6.502;2023-09-19T12:46:54;4.55;;;1.85;;
76157;SDS011;64907;51.574;6.502;2023-09-19T12:49:19;4.00;;;1.60;;
76157;SDS011;64907;51.574;6.502;2023-09-19T12:51:49;3.67;;;2.13;;
76157;SDS011;64907;51.574;6.502;2023-09-19T12:54:14;4.07;;;2.00;;
76157;SDS011;64907;51.574;6.502;2023-09-19T12:56:41;3.60;;;1.48;;
76157;SDS011;64907;51.574;6.502;2023-09-19T12:59:09;5.32;;;1.98;;
76157;SDS011;64907;51.574;6.502;2023-09-19T13:01:38;6.38;;;2.20;;
76157;SDS011;64907;51.574;6.502;2023-09-19T13:04:18;3.28;;;1.85;;
76157;SDS011;64907;51.574;6.502;2023-09-19T13:06:47;5.18;;;2.00;;
76157;SDS011;64907;51.574;6.502;2023-09-19T13:09:14;5.00;;;1.88;;
76157;SDS011;64907;51.574;6.502;2023-09-19T13:11:39;5.07;;;1.92;;
76157;SDS011;64907;51.574;6.502;2023-09-19T13:20:03;7.00;;;1.48;;
76157;SDS011;64907;51.574;6.502;2023-09-19T13:25:29;6.40;;;1.73;;
76157;SDS011;64907;51.574;6.502;2023-09-19T13:27:55;2.42;;;1.40;;
76157;SDS011;64907;51.574;6.502;2023-09-19T13:30:21;2.60;;;1.50;;
76157;SDS011;64907;51.574;6.502;2023-09-19T13:32:47;3.53;;;1.50;;
76157;SDS011;64907;51.574;6.502;2023-09-19T13:35:13;7.00;;;1.63;;
76157;SDS011;64907;51.574;6.502;2023-09-19T13:37:38;3.33;;;1.50;;
76157;SDS011;64907;51.574;6.502;2023-09-19T13:40:11;7.88;;;2.10;;
76157;SDS011;64907;51.574;6.502;2023-09-19T13:42:36;2.88;;;1.40;;
76157;SDS011;64907;51.574;6.502;2023-09-19T13:45:06;1.65;;;1.50;;
76157;SDS011;64907;51.574;6.502;2023-09-19T13:47:31;7.65;;;1.90;;
76157;SDS011;64907;51.574;6.502;2023-09-19T13:49:57;4.57;;;1.73;;
76157;SDS011;64907;51.574;6.502;2023-09-19T13:52:23;3.03;;;1.30;;
76157;SDS011;64907;51.574;6.502;2023-09-19T13:54:49;1.55;;;1.20;;
76157;SDS011;64907;51.574;6.502;2023-09-19T13:57:15;3.40;;;1.45;;
76157;SDS011;64907;51.574;6.502;2023-09-19T13:59:41;2.67;;;1.33;;
76157;SDS011;64907;51.574;6.502;2023-09-19T14:02:06;3.87;;;1.47;;
76157;SDS011;64907;51.574;6.502;2023-09-19T14:04:32;5.63;;;1.40;;
76157;SDS011;64907;51.574;6.502;2023-09-19T14:06:59;1.50;;;1.15;;
76157;SDS011;64907;51.574;6.502;2023-09-19T14:09:25;1.40;;;1.25;;
76157;SDS011;64907;51.574;6.502;2023-09-19T14:11:50;3.47;;;1.20;;
76157;SDS011;64907;51.574;6.502;2023-09-19T14:14:17;2.85;;;1.20;;
76157;SDS011;64907;51.574;6.502;2023-09-19T14:16:43;3.28;;;1.20;;
76157;SDS011;64907;51.574;6.502;2023-09-19T14:19:08;2.72;;;1.73;;
76157;SDS011;64907;51.574;6.502;2023-09-19T14:21:33;3.80;;;1.30;;
76157;SDS011;64907;51.574;6.502;2023-09-19T14:23:58;3.83;;;1.70;;
76157;SDS011;64907;51.574;6.502;2023-09-19T14:26:23;1.43;;;0.90;;
76157;SDS011;64907;51.574;6.502;2023-09-19T14:28:49;2.40;;;1.33;;
76157;SDS011;64907;51.574;6.502;2023-09-19T14:31:14;2.53;;;0.93;;
76157;SDS011;64907;51.574;6.502;2023-09-19T14:33:39;2.25;;;0.80;;
76157;SDS011;64907;51.574;6.502;2023-09-19T14:36:06;2.03;;;1.17;;
76157;SDS011;64907;51.574;6.502;2023-09-19T14:38:33;2.65;;;1.20;;
76157;SDS011;64907;51.574;6.502;2023-09-19T14:40:59;5.18;;;1.10;;
76157;SDS011;64907;51.574;6.502;2023-09-19T14:43:25;1.77;;;1.00;;
76157;SDS011;64907;51.574;6.502;2023-09-19T14:45:50;1.00;;;0.95;;
76157;SDS011;64907;51.574;6.502;2023-09-19T14:48:15;4.15;;;1.27;;
76157;SDS011;64907;51.574;6.502;2023-09-19T14:50:40;1.57;;;0.90;;
76157;SDS011;64907;51.574;6.502;2023-09-19T14:53:06;1.00;;;0.83;;
76157;SDS011;64907;51.574;6.502;2023-09-19T14:55:36;1.15;;;1.08;;
76157;SDS011;64907;51.574;6.502;2023-09-19T14:58:02;2.92;;;1.45;;
76157;SDS011;64907;51.574;6.502;2023-09-19T15:00:27;2.63;;;1.00;;
76157;SDS011;64907;51.574;6.502;2023-09-19T15:02:53;3.27;;;1.43;;
76157;SDS011;64907;51.574;6.502;2023-09-19T15:05:18;1.27;;;1.08;;
76157;SDS011;64907;51.574;6.502;2023-09-19T15:07:44;2.65;;;1.33;;
76157;SDS011;64907;51.574;6.502;2023-09-19T15:10:09;1.00;;;0.95;;
76157;SDS011;64907;51.574;6.502;2023-09-19T15:12:37;1.07;;;1.03;;
76157;SDS011;64907;51.574;6.502;2023-09-19T15:15:04;2.35;;;1.50;;
76157;SDS011;64907;51.574;6.502;2023-09-19T15:17:31;2.60;;;1.23;;
76157;SDS011;64907;51.574;6.502;2023-09-19T15:19:56;3.70;;;1.13;;
76157;SDS011;64907;51.574;6.502;2023-09-19T15:22:22;1.00;;;1.00;;
76157;SDS011;64907;51.574;6.502;2023-09-19T15:24:48;1.00;;;1.00;;
76157;SDS011;64907;51.574;6.502;2023-09-19T15:27:13;1.43;;;1.33;;